sensor_id;sensor_type;location;lat;lon;timestamp;P1;durP1;ratioP1;P2;durP2;ratioP2
74229;SDS011;62589;12.568;99.958;2022-10-30T00:01:00;19.27;;;13.05;;
74229;SDS011;62589;12.568;99.958;2022-10-30T00:03:27;16.90;;;12.90;;
74229;SDS011;62589;12.568;99.958;2022-10-30T00:05:54;17.67;;;12.40;;
74229;SDS011;62589;12.568;99.958;2022-10-30T00:08:21;16.92;;;12.40;;
74229;SDS011;62589;12.568;99.958;2022-10-30T00:10:52;15.50;;;11.45;;
74229;SDS011;62589;12.568;99.958;2022-10-30T00:13:19;15.63;;;12.50;;
74229;SDS011;62589;12.568;99.958;2022-10-30T00:15:47;17.20;;;12.32;;
74229;SDS011;62589;12.568;99.958;2022-10-30T00:18:16;16.50;;;12.75;;
74229;SDS011;62589;12.568;99.958;2022-10-30T00:20:43;19.83;;;12.93;;
74229;SDS011;62589;12.568;99.958;2022-10-30T00:23:10;17.23;;;12.38;;
74229;SDS011;62589;12.568;99.958;2022-10-30T00:25:37;17.40;;;11.52;;
74229;SDS011;62589;12.568;99.958;2022-10-30T00:28:04;17.52;;;12.38;;
74229;SDS011;62589;12.568;99.958;2022-10-30T00:30:32;19.83;;;13.40;;
74229;SDS011;62589;12.568;99.958;2022-10-30T00:33:00;16.45;;;12.27;;
74229;SDS011;62589;12.568;99.958;2022-10-30T00:35:28;18.40;;;12.82;;
74229;SDS011;62589;12.568;99.958;2022-10-30T00:37:56;19.83;;;13.85;;
74229;SDS011;62589;12.568;99.958;2022-10-30T00:40:24;16.40;;;12.38;;
74229;SDS011;62589;12.568;99.958;2022-10-30T00:42:51;19.40;;;13.10;;
74229;SDS011;62589;12.568;99.958;2022-10-30T00:45:17;18.63;;;12.85;;
74229;SDS011;62589;12.568;99.958;2022-10-30T00:47:57;19.90;;;13.57;;
74229;SDS011;62589;12.568;99.958;2022-10-30T00:50:31;19.50;;;12.68;;
74229;SDS011;62589;12.568;99.958;2022-10-30T00:53:09;17.35;;;11.80;;
74229;SDS011;62589;12.568;99.958;2022-10-30T00:55:49;16.48;;;12.25;;
74229;SDS011;62589;12.568;99.958;2022-10-30T00:58:28;14.43;;;12.02;;
74229;SDS011;62589;12.568;99.958;2022-10-30T01:01:02;16.27;;;12.15;;
74229;SDS011;62589;12.568;99.958;2022-10-30T01:03:33;19.17;;;12.07;;
74229;SDS011;62589;12.568;99.958;2022-10-30T01:06:03;15.65;;;11.15;;
74229;SDS011;62589;12.568;99.958;2022-10-30T01:08:34;17.05;;;12.38;;
74229;SDS011;62589;12.568;99.958;2022-10-30T01:11:02;17.77;;;12.35;;
74229;SDS011;62589;12.568;99.958;2022-10-30T01:13:31;15.32;;;11.70;;
74229;SDS011;62589;12.568;99.958;2022-10-30T01:25:00;17.40;;;11.45;;
74229;SDS011;62589;12.568;99.958;2022-10-30T01:27:57;15.20;;;10.93;;
74229;SDS011;62589;12.568;99.958;2022-10-30T01:36:49;15.13;;;10.55;;
74229;SDS011;62589;12.568;99.958;2022-10-30T01:39:25;13.63;;;10.73;;
74229;SDS011;62589;12.568;99.958;2022-10-30T01:41:56;16.33;;;10.57;;
74229;SDS011;62589;12.568;99.958;2022-10-30T01:44:24;14.55;;;10.32;;
74229;SDS011;62589;12.568;99.958;2022-10-30T01:50:08;16.08;;;10.93;;
74229;SDS011;62589;12.568;99.958;2022-10-30T01:53:02;18.27;;;11.43;;
74229;SDS011;62589;12.568;99.958;2022-10-30T01:55:50;14.98;;;10.30;;
74229;SDS011;62589;12.568;99.958;2022-10-30T02:01:43;17.45;;;11.32;;
74229;SDS011;62589;12.568;99.958;2022-10-30T02:04:11;13.23;;;10.23;;
74229;SDS011;62589;12.568;99.958;2022-10-30T02:06:39;16.83;;;11.02;;
74229;SDS011;62589;12.568;99.958;2022-10-30T02:09:06;13.23;;;10.20;;
74229;SDS011;62589;12.568;99.958;2022-10-30T02:11:33;17.67;;;10.32;;
74229;SDS011;62589;12.568;99.958;2022-10-30T02:14:04;12.27;;;10.40;;
74229;SDS011;62589;12.568;99.958;2022-10-30T02:16:37;16.13;;;10.55;;
74229;SDS011;62589;12.568;99.958;2022-10-30T02:19:09;15.77;;;10.82;;
74229;SDS011;62589;12.568;99.958;2022-10-30T02:21:36;16.38;;;10.50;;
74229;SDS011;62589;12.568;99.958;2022-10-30T02:24:03;14.95;;;10.95;;
74229;SDS011;62589;12.568;99.958;2022-10-30T02:26:30;15.13;;;10.90;;
74229;SDS011;62589;12.568;99.958;2022-10-30T02:28:56;13.73;;;10.98;;
74229;SDS011;62589;12.568;99.958;2022-10-30T02:31:23;14.45;;;11.45;;
74229;SDS011;62589;12.568;99.958;2022-10-30T02:33:50;13.80;;;10.60;;
74229;SDS011;62589;12.568;99.958;2022-10-30T02:36:17;15.23;;;9.98;;
74229;SDS011;62589;12.568;99.958;2022-10-30T02:38:44;14.93;;;10.73;;
74229;SDS011;62589;12.568;99.958;2022-10-30T02:41:10;13.13;;;9.55;;
74229;SDS011;62589;12.568;99.958;2022-10-30T02:43:38;15.25;;;10.35;;
74229;SDS011;62589;12.568;99.958;2022-10-30T02:46:04;15.75;;;10.60;;
74229;SDS011;62589;12.568;99.958;2022-10-30T02:48:54;14.15;;;10.90;;
74229;SDS011;62589;12.568;99.958;2022-10-30T02:51:20;15.23;;;11.02;;
74229;SDS011;62589;12.568;99.958;2022-10-30T02:53:47;21.10;;;11.10;;
74229;SDS011;62589;12.568;99.958;2022-10-30T02:56:14;14.98;;;10.80;;
74229;SDS011;62589;12.568;99.958;2022-10-30T02:58:41;15.77;;;10.70;;
74229;SDS011;62589;12.568;99.958;2022-10-30T03:01:10;16.10;;;10.40;;
74229;SDS011;62589;12.568;99.958;2022-10-30T03:03:39;14.70;;;10.13;;
74229;SDS011;62589;12.568;99.958;2022-10-30T03:06:07;16.10;;;10.57;;
74229;SDS011;62589;12.568;99.958;2022-10-30T03:08:35;15.90;;;11.15;;
74229;SDS011;62589;12.568;99.958;2022-10-30T03:11:04;15.05;;;10.13;;
74229;SDS011;62589;12.568;99.958;2022-10-30T03:13:35;14.63;;;10.20;;
74229;SDS011;62589;12.568;99.958;2022-10-30T03:16:09;12.77;;;10.25;;
74229;SDS011;62589;12.568;99.958;2022-10-30T03:18:45;14.20;;;11.02;;
74229;SDS011;62589;12.568;99.958;2022-10-30T03:21:16;18.83;;;11.48;;
74229;SDS011;62589;12.568;99.958;2022-10-30T03:23:45;13.63;;;10.25;;
74229;SDS011;62589;12.568;99.958;2022-10-30T03:26:11;17.63;;;11.25;;
74229;SDS011;62589;12.568;99.958;2022-10-30T03:28:38;13.60;;;10.25;;
74229;SDS011;62589;12.568;99.958;2022-10-30T03:31:07;13.98;;;10.02;;
74229;SDS011;62589;12.568;99.958;2022-10-30T03:33:36;15.85;;;10.48;;
74229;SDS011;62589;12.568;99.958;2022-10-30T03:36:04;14.63;;;9.77;;
74229;SDS011;62589;12.568;99.958;2022-10-30T03:38:32;14.77;;;10.13;;
74229;SDS011;62589;12.568;99.958;2022-10-30T03:40:59;15.60;;;10.50;;
74229;SDS011;62589;12.568;99.958;2022-10-30T03:43:26;17.00;;;10.50;;
74229;SDS011;62589;12.568;99.958;2022-10-30T03:45:53;13.35;;;9.73;;
74229;SDS011;62589;12.568;99.958;2022-10-30T03:48:22;12.27;;;9.18;;
74229;SDS011;62589;12.568;99.958;2022-10-30T03:50:51;12.75;;;9.50;;
74229;SDS011;62589;12.568;99.958;2022-10-30T03:53:19;14.02;;;10.05;;
74229;SDS011;62589;12.568;99.958;2022-10-30T03:55:48;16.60;;;9.80;;
74229;SDS011;62589;12.568;99.958;2022-10-30T03:58:15;16.58;;;10.40;;
74229;SDS011;62589;12.568;99.958;2022-10-30T04:00:42;18.15;;;10.10;;
74229;SDS011;62589;12.568;99.958;2022-10-30T04:03:09;13.25;;;9.68;;
74229;SDS011;62589;12.568;99.958;2022-10-30T04:05:36;18.02;;;11.25;;
74229;SDS011;62589;12.568;99.958;2022-10-30T04:08:04;16.85;;;11.52;;
74229;SDS011;62589;12.568;99.958;2022-10-30T04:10:33;19.25;;;10.40;;
74229;SDS011;62589;12.568;99.958;2022-10-30T04:13:00;14.65;;;10.75;;
74229;SDS011;62589;12.568;99.958;2022-10-30T04:15:29;14.98;;;9.63;;
74229;SDS011;62589;12.568;99.958;2022-10-30T04:17:59;12.38;;;8.90;;
74229;SDS011;62589;12.568;99.958;2022-10-30T04:20:26;11.90;;;9.23;;
74229;SDS011;62589;12.568;99.958;2022-10-30T04:22:57;16.70;;;9.68;;
74229;SDS011;62589;12.568;99.958;2022-10-30T04:25:25;15.40;;;9.75;;
74229;SDS011;62589;12.568;99.958;2022-10-30T04:27:53;12.90;;;9.25;;
74229;SDS011;62589;12.568;99.958;2022-10-30T04:30:21;20.38;;;9.95;;
74229;SDS011;62589;12.568;99.958;2022-10-30T04:32:59;14.00;;;10.00;;
74229;SDS011;62589;12.568;99.958;2022-10-30T04:35:30;16.63;;;10.60;;
74229;SDS011;62589;12.568;99.958;2022-10-30T04:38:05;13.07;;;9.23;;
74229;SDS011;62589;12.568;99.958;2022-10-30T04:40:35;13.93;;;9.60;;
74229;SDS011;62589;12.568;99.958;2022-10-30T04:43:04;12.85;;;9.73;;
74229;SDS011;62589;12.568;99.958;2022-10-30T04:45:32;11.63;;;9.68;;
74229;SDS011;62589;12.568;99.958;2022-10-30T04:48:17;12.90;;;10.02;;
74229;SDS011;62589;12.568;99.958;2022-10-30T04:50:44;13.57;;;9.07;;
74229;SDS011;62589;12.568;99.958;2022-10-30T04:53:13;15.85;;;9.77;;
74229;SDS011;62589;12.568;99.958;2022-10-30T04:55:41;15.15;;;9.95;;
74229;SDS011;62589;12.568;99.958;2022-10-30T04:58:09;15.85;;;10.80;;
74229;SDS011;62589;12.568;99.958;2022-10-30T05:00:36;15.93;;;9.50;;
74229;SDS011;62589;12.568;99.958;2022-10-30T05:03:03;14.82;;;9.90;;
74229;SDS011;62589;12.568;99.958;2022-10-30T05:05:30;13.23;;;10.25;;
74229;SDS011;62589;12.568;99.958;2022-10-30T05:07:57;17.58;;;10.98;;
74229;SDS011;62589;12.568;99.958;2022-10-30T05:10:24;16.48;;;10.25;;
74229;SDS011;62589;12.568;99.958;2022-10-30T05:12:51;13.48;;;9.88;;
74229;SDS011;62589;12.568;99.958;2022-10-30T05:15:18;13.23;;;10.10;;
74229;SDS011;62589;12.568;99.958;2022-10-30T05:17:54;15.35;;;9.70;;
74229;SDS011;62589;12.568;99.958;2022-10-30T05:20:24;15.13;;;9.82;;
74229;SDS011;62589;12.568;99.958;2022-10-30T05:22:54;11.20;;;8.05;;
74229;SDS011;62589;12.568;99.958;2022-10-30T05:25:22;11.43;;;8.27;;
74229;SDS011;62589;12.568;99.958;2022-10-30T05:27:50;11.48;;;8.13;;
74229;SDS011;62589;12.568;99.958;2022-10-30T05:30:39;14.48;;;8.18;;
74229;SDS011;62589;12.568;99.958;2022-10-30T05:33:09;12.15;;;7.90;;
74229;SDS011;62589;12.568;99.958;2022-10-30T05:35:37;11.00;;;8.65;;
74229;SDS011;62589;12.568;99.958;2022-10-30T05:38:05;15.68;;;9.40;;
74229;SDS011;62589;12.568;99.958;2022-10-30T05:40:32;12.63;;;8.50;;
74229;SDS011;62589;12.568;99.958;2022-10-30T05:43:00;9.77;;;7.85;;
74229;SDS011;62589;12.568;99.958;2022-10-30T05:45:30;12.93;;;8.40;;
74229;SDS011;62589;12.568;99.958;2022-10-30T05:48:01;13.82;;;10.02;;
74229;SDS011;62589;12.568;99.958;2022-10-30T05:50:30;17.08;;;10.68;;
74229;SDS011;62589;12.568;99.958;2022-10-30T05:52:58;17.02;;;10.25;;
74229;SDS011;62589;12.568;99.958;2022-10-30T05:55:27;13.18;;;10.25;;
74229;SDS011;62589;12.568;99.958;2022-10-30T05:57:54;14.90;;;10.20;;
74229;SDS011;62589;12.568;99.958;2022-10-30T06:00:22;14.90;;;9.90;;
74229;SDS011;62589;12.568;99.958;2022-10-30T06:02:49;18.52;;;10.20;;
74229;SDS011;62589;12.568;99.958;2022-10-30T06:05:16;15.23;;;10.35;;
74229;SDS011;62589;12.568;99.958;2022-10-30T06:07:42;14.90;;;10.00;;
74229;SDS011;62589;12.568;99.958;2022-10-30T06:10:09;14.77;;;10.27;;
74229;SDS011;62589;12.568;99.958;2022-10-30T06:12:36;16.85;;;10.60;;
74229;SDS011;62589;12.568;99.958;2022-10-30T06:15:02;15.48;;;10.43;;
74229;SDS011;62589;12.568;99.958;2022-10-30T06:17:29;11.88;;;10.13;;
74229;SDS011;62589;12.568;99.958;2022-10-30T06:19:56;11.88;;;9.70;;
74229;SDS011;62589;12.568;99.958;2022-10-30T06:22:23;13.95;;;9.90;;
74229;SDS011;62589;12.568;99.958;2022-10-30T06:24:50;15.40;;;10.45;;
74229;SDS011;62589;12.568;99.958;2022-10-30T06:27:16;12.48;;;9.60;;
74229;SDS011;62589;12.568;99.958;2022-10-30T06:29:43;12.93;;;10.02;;
74229;SDS011;62589;12.568;99.958;2022-10-30T06:32:10;13.90;;;10.02;;
74229;SDS011;62589;12.568;99.958;2022-10-30T06:34:36;13.00;;;10.13;;
74229;SDS011;62589;12.568;99.958;2022-10-30T06:37:03;17.00;;;10.60;;
74229;SDS011;62589;12.568;99.958;2022-10-30T06:39:30;14.98;;;10.20;;
74229;SDS011;62589;12.568;99.958;2022-10-30T06:41:57;14.25;;;9.93;;
74229;SDS011;62589;12.568;99.958;2022-10-30T06:44:24;15.70;;;9.98;;
74229;SDS011;62589;12.568;99.958;2022-10-30T06:46:51;14.40;;;10.25;;
74229;SDS011;62589;12.568;99.958;2022-10-30T06:49:19;13.48;;;10.43;;
74229;SDS011;62589;12.568;99.958;2022-10-30T06:51:46;14.80;;;10.00;;
74229;SDS011;62589;12.568;99.958;2022-10-30T06:54:14;15.77;;;10.93;;
74229;SDS011;62589;12.568;99.958;2022-10-30T06:56:41;14.98;;;10.52;;
74229;SDS011;62589;12.568;99.958;2022-10-30T06:59:08;12.82;;;10.05;;
74229;SDS011;62589;12.568;99.958;2022-10-30T07:01:35;12.73;;;9.50;;
74229;SDS011;62589;12.568;99.958;2022-10-30T07:04:02;13.98;;;10.00;;
74229;SDS011;62589;12.568;99.958;2022-10-30T07:06:29;13.55;;;9.70;;
74229;SDS011;62589;12.568;99.958;2022-10-30T07:08:55;13.82;;;9.63;;
74229;SDS011;62589;12.568;99.958;2022-10-30T07:11:22;12.88;;;10.43;;
74229;SDS011;62589;12.568;99.958;2022-10-30T07:13:49;13.98;;;9.43;;
74229;SDS011;62589;12.568;99.958;2022-10-30T07:16:16;14.00;;;10.15;;
74229;SDS011;62589;12.568;99.958;2022-10-30T07:18:42;11.75;;;9.57;;
74229;SDS011;62589;12.568;99.958;2022-10-30T07:21:09;11.90;;;9.70;;
74229;SDS011;62589;12.568;99.958;2022-10-30T07:23:36;12.63;;;9.63;;
74229;SDS011;62589;12.568;99.958;2022-10-30T07:26:03;11.45;;;9.20;;
74229;SDS011;62589;12.568;99.958;2022-10-30T07:28:29;15.02;;;9.93;;
74229;SDS011;62589;12.568;99.958;2022-10-30T07:30:59;16.48;;;10.55;;
74229;SDS011;62589;12.568;99.958;2022-10-30T07:33:26;12.10;;;9.68;;
74229;SDS011;62589;12.568;99.958;2022-10-30T07:35:53;10.60;;;8.77;;
74229;SDS011;62589;12.568;99.958;2022-10-30T07:38:19;15.10;;;9.38;;
74229;SDS011;62589;12.568;99.958;2022-10-30T07:40:50;11.63;;;8.45;;
74229;SDS011;62589;12.568;99.958;2022-10-30T07:43:17;14.45;;;9.63;;
74229;SDS011;62589;12.568;99.958;2022-10-30T07:45:44;11.63;;;9.35;;
74229;SDS011;62589;12.568;99.958;2022-10-30T07:48:11;15.73;;;10.50;;
74229;SDS011;62589;12.568;99.958;2022-10-30T07:50:37;13.75;;;10.02;;
74229;SDS011;62589;12.568;99.958;2022-10-30T07:53:03;15.27;;;9.82;;
74229;SDS011;62589;12.568;99.958;2022-10-30T07:55:30;12.25;;;9.05;;
74229;SDS011;62589;12.568;99.958;2022-10-30T07:57:59;13.38;;;9.52;;
74229;SDS011;62589;12.568;99.958;2022-10-30T08:00:26;11.90;;;9.23;;
74229;SDS011;62589;12.568;99.958;2022-10-30T08:02:55;14.32;;;10.35;;
74229;SDS011;62589;12.568;99.958;2022-10-30T08:05:28;11.30;;;9.70;;
74229;SDS011;62589;12.568;99.958;2022-10-30T08:07:54;11.52;;;9.98;;
74229;SDS011;62589;12.568;99.958;2022-10-30T08:10:21;13.68;;;10.82;;
74229;SDS011;62589;12.568;99.958;2022-10-30T08:12:47;13.43;;;10.25;;
74229;SDS011;62589;12.568;99.958;2022-10-30T08:15:14;15.00;;;10.23;;
74229;SDS011;62589;12.568;99.958;2022-10-30T08:17:44;11.85;;;9.10;;
74229;SDS011;62589;12.568;99.958;2022-10-30T08:20:12;13.40;;;10.05;;
74229;SDS011;62589;12.568;99.958;2022-10-30T08:22:58;13.80;;;10.65;;
74229;SDS011;62589;12.568;99.958;2022-10-30T08:25:26;18.42;;;10.75;;
74229;SDS011;62589;12.568;99.958;2022-10-30T08:27:54;17.00;;;11.25;;
74229;SDS011;62589;12.568;99.958;2022-10-30T08:30:27;16.23;;;11.07;;
74229;SDS011;62589;12.568;99.958;2022-10-30T08:32:58;15.02;;;10.25;;
74229;SDS011;62589;12.568;99.958;2022-10-30T08:35:26;15.43;;;11.40;;
74229;SDS011;62589;12.568;99.958;2022-10-30T08:37:55;15.10;;;11.27;;
74229;SDS011;62589;12.568;99.958;2022-10-30T08:40:23;15.40;;;11.23;;
74229;SDS011;62589;12.568;99.958;2022-10-30T08:42:54;13.70;;;10.48;;
74229;SDS011;62589;12.568;99.958;2022-10-30T08:45:24;15.55;;;10.93;;
74229;SDS011;62589;12.568;99.958;2022-10-30T08:47:57;13.00;;;10.45;;
74229;SDS011;62589;12.568;99.958;2022-10-30T08:50:25;14.00;;;10.60;;
74229;SDS011;62589;12.568;99.958;2022-10-30T08:52:52;16.63;;;11.93;;
74229;SDS011;62589;12.568;99.958;2022-10-30T08:55:18;15.38;;;11.65;;
74229;SDS011;62589;12.568;99.958;2022-10-30T08:57:45;16.85;;;11.90;;
74229;SDS011;62589;12.568;99.958;2022-10-30T09:00:11;16.80;;;11.02;;
74229;SDS011;62589;12.568;99.958;2022-10-30T09:02:41;13.07;;;11.15;;
74229;SDS011;62589;12.568;99.958;2022-10-30T09:05:07;13.18;;;11.07;;
74229;SDS011;62589;12.568;99.958;2022-10-30T09:07:37;15.00;;;11.30;;
74229;SDS011;62589;12.568;99.958;2022-10-30T09:10:03;14.85;;;11.32;;
74229;SDS011;62589;12.568;99.958;2022-10-30T09:12:30;20.63;;;12.77;;
74229;SDS011;62589;12.568;99.958;2022-10-30T09:14:56;17.50;;;12.20;;
74229;SDS011;62589;12.568;99.958;2022-10-30T09:17:23;18.00;;;12.32;;
74229;SDS011;62589;12.568;99.958;2022-10-30T09:19:49;15.43;;;12.25;;
74229;SDS011;62589;12.568;99.958;2022-10-30T09:22:15;15.88;;;10.98;;
74229;SDS011;62589;12.568;99.958;2022-10-30T09:24:42;14.95;;;11.65;;
74229;SDS011;62589;12.568;99.958;2022-10-30T09:27:08;13.05;;;11.60;;
74229;SDS011;62589;12.568;99.958;2022-10-30T09:29:34;14.95;;;12.40;;
74229;SDS011;62589;12.568;99.958;2022-10-30T09:32:01;16.95;;;11.95;;
74229;SDS011;62589;12.568;99.958;2022-10-30T09:34:33;14.98;;;11.73;;
74229;SDS011;62589;12.568;99.958;2022-10-30T09:36:59;15.10;;;11.85;;
74229;SDS011;62589;12.568;99.958;2022-10-30T09:39:26;14.15;;;11.63;;
74229;SDS011;62589;12.568;99.958;2022-10-30T09:42:02;17.23;;;13.15;;
74229;SDS011;62589;12.568;99.958;2022-10-30T09:44:57;15.80;;;12.48;;
74229;SDS011;62589;12.568;99.958;2022-10-30T09:47:41;15.35;;;12.50;;
74229;SDS011;62589;12.568;99.958;2022-10-30T09:53:21;16.90;;;12.35;;
74229;SDS011;62589;12.568;99.958;2022-10-30T09:56:08;14.40;;;11.13;;
74229;SDS011;62589;12.568;99.958;2022-10-30T10:04:38;15.65;;;11.35;;
74229;SDS011;62589;12.568;99.958;2022-10-30T10:07:26;13.93;;;11.07;;
74229;SDS011;62589;12.568;99.958;2022-10-30T10:10:08;17.92;;;12.27;;
74229;SDS011;62589;12.568;99.958;2022-10-30T10:12:46;12.93;;;11.55;;
74229;SDS011;62589;12.568;99.958;2022-10-30T10:15:26;14.25;;;11.60;;
74229;SDS011;62589;12.568;99.958;2022-10-30T10:18:03;15.18;;;11.88;;
74229;SDS011;62589;12.568;99.958;2022-10-30T10:20:39;16.67;;;11.50;;
74229;SDS011;62589;12.568;99.958;2022-10-30T10:23:18;14.20;;;11.35;;
74229;SDS011;62589;12.568;99.958;2022-10-30T10:25:56;16.08;;;12.27;;
74229;SDS011;62589;12.568;99.958;2022-10-30T10:34:30;15.10;;;12.40;;
74229;SDS011;62589;12.568;99.958;2022-10-30T10:37:30;14.90;;;12.18;;
74229;SDS011;62589;12.568;99.958;2022-10-30T10:40:17;13.57;;;11.50;;
74229;SDS011;62589;12.568;99.958;2022-10-30T10:43:19;14.93;;;12.30;;
74229;SDS011;62589;12.568;99.958;2022-10-30T10:48:51;15.35;;;12.25;;
74229;SDS011;62589;12.568;99.958;2022-10-30T10:51:32;14.70;;;11.57;;
74229;SDS011;62589;12.568;99.958;2022-10-30T10:54:26;15.43;;;11.98;;
74229;SDS011;62589;12.568;99.958;2022-10-30T10:57:03;15.85;;;12.07;;
74229;SDS011;62589;12.568;99.958;2022-10-30T11:02:23;16.90;;;13.85;;
74229;SDS011;62589;12.568;99.958;2022-10-30T11:05:11;18.33;;;12.85;;
74229;SDS011;62589;12.568;99.958;2022-10-30T11:08:20;17.65;;;15.15;;
74229;SDS011;62589;12.568;99.958;2022-10-30T11:10:58;16.00;;;13.35;;
74229;SDS011;62589;12.568;99.958;2022-10-30T11:13:34;17.33;;;14.23;;
74229;SDS011;62589;12.568;99.958;2022-10-30T11:18:50;16.33;;;12.90;;
74229;SDS011;62589;12.568;99.958;2022-10-30T11:21:21;17.17;;;14.05;;
74229;SDS011;62589;12.568;99.958;2022-10-30T11:23:49;18.55;;;13.63;;
74229;SDS011;62589;12.568;99.958;2022-10-30T11:29:13;20.00;;;15.25;;
74229;SDS011;62589;12.568;99.958;2022-10-30T11:31:57;19.33;;;15.65;;
74229;SDS011;62589;12.568;99.958;2022-10-30T11:34:30;24.48;;;18.52;;
74229;SDS011;62589;12.568;99.958;2022-10-30T11:37:01;25.83;;;20.08;;
74229;SDS011;62589;12.568;99.958;2022-10-30T11:39:29;33.70;;;23.63;;
74229;SDS011;62589;12.568;99.958;2022-10-30T11:44:44;38.53;;;25.50;;
74229;SDS011;62589;12.568;99.958;2022-10-30T11:47:14;39.40;;;27.30;;
74229;SDS011;62589;12.568;99.958;2022-10-30T11:49:54;34.72;;;25.88;;
74229;SDS011;62589;12.568;99.958;2022-10-30T11:52:24;34.28;;;24.35;;
74229;SDS011;62589;12.568;99.958;2022-10-30T11:54:55;28.88;;;22.75;;
74229;SDS011;62589;12.568;99.958;2022-10-30T11:57:36;30.90;;;20.77;;
74229;SDS011;62589;12.568;99.958;2022-10-30T12:00:18;27.23;;;20.77;;
74229;SDS011;62589;12.568;99.958;2022-10-30T12:02:48;26.83;;;20.23;;
74229;SDS011;62589;12.568;99.958;2022-10-30T12:05:28;24.40;;;18.80;;
74229;SDS011;62589;12.568;99.958;2022-10-30T12:10:57;26.08;;;18.88;;
74229;SDS011;62589;12.568;99.958;2022-10-30T12:13:26;24.52;;;17.88;;
74229;SDS011;62589;12.568;99.958;2022-10-30T12:18:37;26.75;;;18.20;;
74229;SDS011;62589;12.568;99.958;2022-10-30T12:21:07;22.88;;;17.58;;
74229;SDS011;62589;12.568;99.958;2022-10-30T12:23:36;23.10;;;17.90;;
74229;SDS011;62589;12.568;99.958;2022-10-30T12:26:08;20.23;;;17.33;;
74229;SDS011;62589;12.568;99.958;2022-10-30T12:28:37;22.33;;;18.20;;
74229;SDS011;62589;12.568;99.958;2022-10-30T12:31:12;21.40;;;17.77;;
74229;SDS011;62589;12.568;99.958;2022-10-30T12:33:52;21.33;;;17.67;;
74229;SDS011;62589;12.568;99.958;2022-10-30T12:36:44;22.42;;;17.25;;
74229;SDS011;62589;12.568;99.958;2022-10-30T12:39:19;21.85;;;17.88;;
74229;SDS011;62589;12.568;99.958;2022-10-30T12:41:59;20.75;;;17.42;;
74229;SDS011;62589;12.568;99.958;2022-10-30T12:44:33;27.10;;;18.42;;
74229;SDS011;62589;12.568;99.958;2022-10-30T12:47:10;25.05;;;18.52;;
74229;SDS011;62589;12.568;99.958;2022-10-30T12:52:50;22.48;;;18.02;;
74229;SDS011;62589;12.568;99.958;2022-10-30T12:55:34;23.35;;;18.23;;
74229;SDS011;62589;12.568;99.958;2022-10-30T12:58:12;20.63;;;17.10;;
74229;SDS011;62589;12.568;99.958;2022-10-30T13:03:58;22.27;;;17.42;;
74229;SDS011;62589;12.568;99.958;2022-10-30T13:09:48;22.05;;;16.42;;
74229;SDS011;62589;12.568;99.958;2022-10-30T13:12:30;20.48;;;16.75;;
74229;SDS011;62589;12.568;99.958;2022-10-30T13:17:58;21.58;;;17.13;;
74229;SDS011;62589;12.568;99.958;2022-10-30T13:20:31;22.27;;;17.63;;
74229;SDS011;62589;12.568;99.958;2022-10-30T13:23:01;20.15;;;16.48;;
74229;SDS011;62589;12.568;99.958;2022-10-30T13:28:28;21.02;;;17.00;;
74229;SDS011;62589;12.568;99.958;2022-10-30T13:37:29;23.90;;;17.77;;
74229;SDS011;62589;12.568;99.958;2022-10-30T13:40:20;22.05;;;17.90;;
74229;SDS011;62589;12.568;99.958;2022-10-30T13:45:59;21.98;;;17.33;;
74229;SDS011;62589;12.568;99.958;2022-10-30T13:51:41;22.50;;;17.50;;
74229;SDS011;62589;12.568;99.958;2022-10-30T13:54:32;22.85;;;16.83;;
74229;SDS011;62589;12.568;99.958;2022-10-30T13:57:07;22.77;;;17.30;;
74229;SDS011;62589;12.568;99.958;2022-10-30T14:11:11;21.88;;;16.13;;
74229;SDS011;62589;12.568;99.958;2022-10-30T14:19:28;21.40;;;17.88;;
74229;SDS011;62589;12.568;99.958;2022-10-30T14:21:55;22.75;;;17.23;;
74229;SDS011;62589;12.568;99.958;2022-10-30T14:24:25;23.38;;;18.35;;
74229;SDS011;62589;12.568;99.958;2022-10-30T14:29:46;22.77;;;18.73;;
74229;SDS011;62589;12.568;99.958;2022-10-30T14:35:06;22.45;;;17.98;;
74229;SDS011;62589;12.568;99.958;2022-10-30T14:38:06;23.80;;;18.60;;
74229;SDS011;62589;12.568;99.958;2022-10-30T14:46:56;24.33;;;19.65;;
74229;SDS011;62589;12.568;99.958;2022-10-30T14:49:45;23.50;;;18.63;;
74229;SDS011;62589;12.568;99.958;2022-10-30T14:58:30;22.05;;;18.58;;
74229;SDS011;62589;12.568;99.958;2022-10-30T15:03:52;29.45;;;19.33;;
74229;SDS011;62589;12.568;99.958;2022-10-30T15:12:11;28.15;;;21.23;;
74229;SDS011;62589;12.568;99.958;2022-10-30T15:14:58;28.42;;;21.13;;
74229;SDS011;62589;12.568;99.958;2022-10-30T15:17:38;24.83;;;19.75;;
74229;SDS011;62589;12.568;99.958;2022-10-30T15:20:12;25.58;;;19.67;;
74229;SDS011;62589;12.568;99.958;2022-10-30T15:22:43;28.00;;;20.33;;
74229;SDS011;62589;12.568;99.958;2022-10-30T15:25:15;27.27;;;20.05;;
74229;SDS011;62589;12.568;99.958;2022-10-30T15:27:48;26.70;;;19.45;;
74229;SDS011;62589;12.568;99.958;2022-10-30T15:30:19;26.83;;;20.58;;
74229;SDS011;62589;12.568;99.958;2022-10-30T15:32:47;28.25;;;20.77;;
74229;SDS011;62589;12.568;99.958;2022-10-30T15:35:16;24.80;;;20.33;;
74229;SDS011;62589;12.568;99.958;2022-10-30T15:40:27;31.15;;;21.92;;
74229;SDS011;62589;12.568;99.958;2022-10-30T15:42:55;29.80;;;21.20;;
74229;SDS011;62589;12.568;99.958;2022-10-30T15:45:24;29.10;;;21.45;;
74229;SDS011;62589;12.568;99.958;2022-10-30T15:51:02;26.73;;;20.67;;
74229;SDS011;62589;12.568;99.958;2022-10-30T15:53:39;29.48;;;20.15;;
74229;SDS011;62589;12.568;99.958;2022-10-30T15:56:21;26.17;;;19.38;;
74229;SDS011;62589;12.568;99.958;2022-10-30T15:58:56;24.77;;;19.42;;
74229;SDS011;62589;12.568;99.958;2022-10-30T16:01:35;24.33;;;18.98;;
74229;SDS011;62589;12.568;99.958;2022-10-30T16:06:51;22.50;;;19.13;;
74229;SDS011;62589;12.568;99.958;2022-10-30T16:09:20;25.85;;;18.90;;
74229;SDS011;62589;12.568;99.958;2022-10-30T16:11:47;26.95;;;19.55;;
74229;SDS011;62589;12.568;99.958;2022-10-30T16:14:17;25.00;;;18.58;;
74229;SDS011;62589;12.568;99.958;2022-10-30T16:16:48;27.43;;;20.07;;
74229;SDS011;62589;12.568;99.958;2022-10-30T16:19:23;25.38;;;19.70;;
74229;SDS011;62589;12.568;99.958;2022-10-30T16:21:54;24.17;;;19.52;;
74229;SDS011;62589;12.568;99.958;2022-10-30T16:24:23;25.13;;;19.27;;
74229;SDS011;62589;12.568;99.958;2022-10-30T16:29:43;23.83;;;18.08;;
74229;SDS011;62589;12.568;99.958;2022-10-30T16:32:12;23.15;;;18.45;;
74229;SDS011;62589;12.568;99.958;2022-10-30T16:34:41;26.98;;;20.08;;
74229;SDS011;62589;12.568;99.958;2022-10-30T16:37:13;23.98;;;19.00;;
74229;SDS011;62589;12.568;99.958;2022-10-30T16:39:48;24.90;;;18.58;;
74229;SDS011;62589;12.568;99.958;2022-10-30T16:42:23;23.70;;;18.75;;
74229;SDS011;62589;12.568;99.958;2022-10-30T16:44:52;26.23;;;18.67;;
74229;SDS011;62589;12.568;99.958;2022-10-30T16:47:51;25.88;;;18.73;;
74229;SDS011;62589;12.568;99.958;2022-10-30T16:50:37;24.13;;;19.27;;
74229;SDS011;62589;12.568;99.958;2022-10-30T16:53:04;22.55;;;18.35;;
74229;SDS011;62589;12.568;99.958;2022-10-30T16:55:34;23.70;;;18.50;;